createdAt,value
2023-05-05T00:01:25.853Z,4.60
2023-05-05T00:03:52.717Z,3.25
2023-05-05T00:06:19.439Z,3.40
2023-05-05T00:08:46.375Z,3.22
2023-05-05T00:11:13.066Z,3.08
2023-05-05T00:13:39.796Z,3.10
2023-05-05T00:16:06.711Z,3.20
2023-05-05T00:18:33.833Z,3.00
2023-05-05T00:21:00.886Z,2.70
2023-05-05T00:23:27.827Z,3.42
2023-05-05T00:25:54.541Z,3.40
2023-05-05T00:28:21.229Z,3.53
2023-05-05T00:30:48.002Z,3.20
2023-05-05T00:33:15.260Z,3.33
2023-05-05T00:35:42.204Z,3.28
2023-05-05T00:38:09.422Z,3.40
2023-05-05T00:40:37.877Z,3.00
2023-05-05T00:43:05.165Z,3.65
2023-05-05T00:45:32.077Z,3.08
2023-05-05T00:48:00.590Z,3.10
2023-05-05T00:50:30.342Z,2.70
2023-05-05T00:53:00.962Z,2.90
2023-05-05T00:55:32.206Z,3.55
2023-05-05T00:57:59.991Z,3.38
2023-05-05T01:00:28.588Z,3.05
2023-05-05T01:02:55.874Z,2.47
2023-05-05T01:05:24.686Z,3.30
2023-05-05T01:08:23.382Z,3.20
2023-05-05T01:10:57.308Z,2.95
2023-05-05T01:14:02.176Z,2.83
2023-05-05T01:16:31.247Z,3.15
2023-05-05T01:19:15.040Z,2.72
2023-05-05T01:21:49.618Z,3.40
2023-05-05T01:24:35.022Z,3.05
2023-05-05T01:27:40.391Z,2.78
2023-05-05T01:30:28.162Z,3.13
2023-05-05T01:33:00.831Z,2.75
2023-05-05T01:35:31.781Z,2.80
2023-05-05T01:38:19.162Z,2.88
2023-05-05T01:40:52.200Z,3.28
2023-05-05T01:43:22.643Z,2.65
2023-05-05T01:45:50.578Z,3.00
2023-05-05T01:48:19.468Z,3.38
2023-05-05T01:50:48.227Z,3.58
2023-05-05T01:53:17.552Z,3.13
2023-05-05T01:55:45.978Z,3.05
2023-05-05T01:58:14.166Z,3.17
2023-05-05T02:00:42.732Z,3.28
2023-05-05T02:03:12.067Z,2.78
2023-05-05T02:05:40.372Z,3.13
2023-05-05T02:08:09.504Z,3.05
2023-05-05T02:10:40.971Z,2.85
2023-05-05T02:13:10.800Z,2.80
2023-05-05T02:15:39.062Z,2.85
2023-05-05T02:18:07.295Z,3.35
2023-05-05T02:20:36.030Z,3.00
2023-05-05T02:23:05.618Z,2.28
2023-05-05T02:25:43.269Z,3.00
2023-05-05T02:28:17.165Z,2.97
2023-05-05T02:30:45.888Z,2.65
2023-05-05T02:33:19.244Z,2.80
2023-05-05T02:35:47.875Z,3.10
2023-05-05T02:38:17.625Z,2.60
2023-05-05T02:40:49.690Z,2.80
2023-05-05T02:43:21.353Z,3.35
2023-05-05T02:45:48.493Z,3.10
2023-05-05T02:48:16.561Z,2.60
2023-05-05T02:50:43.296Z,3.10
2023-05-05T02:53:25.582Z,3.35
2023-05-05T02:56:25.938Z,3.55
2023-05-05T03:01:49.157Z,3.00
2023-05-05T03:04:27.688Z,3.05
2023-05-05T03:06:59.468Z,2.92
2023-05-05T03:09:37.186Z,3.00
2023-05-05T03:12:08.388Z,3.13
2023-05-05T03:14:46.765Z,3.30
2023-05-05T03:17:18.170Z,2.97
2023-05-05T03:19:47.532Z,2.90
2023-05-05T03:22:14.679Z,2.80
2023-05-05T03:24:50.717Z,2.92
2023-05-05T03:27:21.081Z,2.83
2023-05-05T03:29:47.982Z,3.28
2023-05-05T03:32:16.372Z,2.83
2023-05-05T03:34:43.955Z,3.00
2023-05-05T03:37:10.920Z,3.13
2023-05-05T03:39:39.569Z,3.20
2023-05-05T03:42:07.932Z,3.38
2023-05-05T03:44:35.637Z,3.05
2023-05-05T03:47:02.629Z,3.35
2023-05-05T03:49:31.681Z,3.03
2023-05-05T03:51:58.534Z,2.95
2023-05-05T03:54:25.362Z,3.58
2023-05-05T03:56:52.091Z,2.65
2023-05-05T03:59:18.746Z,3.28
2023-05-05T04:01:46.616Z,3.03
2023-05-05T04:04:13.428Z,3.08
2023-05-05T04:06:40.870Z,2.78
2023-05-05T04:09:08.502Z,3.35
2023-05-05T04:11:36.434Z,3.10
2023-05-05T04:14:03.274Z,3.15
2023-05-05T04:16:31.077Z,2.80
2023-05-05T04:18:58.996Z,2.97
2023-05-05T04:21:25.632Z,2.67
2023-05-05T04:23:52.870Z,3.17
2023-05-05T04:26:21.083Z,3.55
2023-05-05T04:28:48.157Z,2.72
2023-05-05T04:31:16.616Z,3.20
2023-05-05T04:33:44.774Z,3.10
2023-05-05T04:36:12.522Z,2.88
2023-05-05T04:38:39.381Z,2.97
2023-05-05T04:41:06.483Z,2.50
2023-05-05T04:43:34.313Z,3.13
2023-05-05T04:46:02.122Z,2.67
2023-05-05T04:48:31.714Z,3.42
2023-05-05T04:50:58.400Z,3.08
2023-05-05T04:53:25.131Z,3.08
2023-05-05T04:55:51.859Z,2.88
2023-05-05T04:58:18.620Z,2.88
2023-05-05T05:00:45.793Z,2.85
2023-05-05T05:03:12.494Z,3.65
2023-05-05T05:05:39.178Z,2.80
2023-05-05T05:08:06.231Z,2.70
2023-05-05T05:10:33.046Z,2.33
2023-05-05T05:13:00.173Z,2.58
2023-05-05T05:15:27.895Z,3.40
2023-05-05T05:17:54.815Z,3.00
2023-05-05T05:20:21.669Z,3.67
2023-05-05T05:22:48.334Z,3.00
2023-05-05T05:25:18.164Z,2.95
2023-05-05T05:27:52.328Z,3.38
2023-05-05T05:30:29.873Z,2.67
2023-05-05T05:32:56.661Z,3.42
2023-05-05T05:35:23.364Z,3.20
2023-05-05T05:37:51.711Z,2.60
2023-05-05T05:40:18.587Z,2.78
2023-05-05T05:42:45.282Z,3.13
2023-05-05T05:45:12.098Z,3.20
2023-05-05T05:47:40.284Z,2.50
2023-05-05T05:50:07.773Z,2.53
2023-05-05T05:52:36.122Z,2.85
2023-05-05T05:55:05.762Z,2.67
2023-05-05T05:57:32.495Z,3.38
2023-05-05T06:00:01.554Z,2.60
2023-05-05T06:02:38.655Z,3.35
2023-05-05T06:05:08.396Z,3.13
2023-05-05T06:07:35.474Z,2.55
2023-05-05T06:10:14.481Z,2.85
2023-05-05T06:12:49.472Z,2.90
2023-05-05T06:15:16.253Z,3.25
2023-05-05T06:17:43.179Z,3.17
2023-05-05T06:20:10.938Z,3.22
2023-05-05T06:22:39.228Z,2.80
2023-05-05T06:25:06.542Z,3.45
2023-05-05T06:27:33.196Z,2.85
2023-05-05T06:29:59.865Z,3.72
2023-05-05T06:32:26.557Z,3.08
2023-05-05T06:34:53.391Z,3.33
2023-05-05T06:37:20.474Z,3.22
2023-05-05T06:39:47.255Z,4.30
2023-05-05T06:42:13.916Z,3.03
2023-05-05T06:44:40.700Z,3.25
2023-05-05T06:47:08.099Z,3.63
2023-05-05T06:49:34.833Z,2.83
2023-05-05T06:52:02.272Z,2.83
2023-05-05T06:54:29.555Z,2.85
2023-05-05T06:56:57.572Z,3.45
2023-05-05T06:59:26.149Z,3.25
2023-05-05T07:01:52.864Z,2.72
2023-05-05T07:04:19.598Z,2.67
2023-05-05T07:06:46.344Z,3.10
2023-05-05T07:09:14.771Z,2.95
2023-05-05T07:11:42.340Z,2.78
2023-05-05T07:14:09.017Z,2.80
2023-05-05T07:16:37.227Z,2.88
2023-05-05T07:19:06.117Z,3.40
2023-05-05T07:21:34.567Z,3.95
2023-05-05T07:24:03.014Z,3.35
2023-05-05T07:26:29.835Z,3.72
2023-05-05T07:28:58.535Z,3.67
2023-05-05T07:31:26.198Z,4.25
2023-05-05T07:33:52.919Z,3.55
2023-05-05T07:36:20.345Z,4.00
2023-05-05T07:38:47.009Z,3.88
2023-05-05T07:41:13.749Z,4.35
2023-05-05T07:43:44.281Z,4.90
2023-05-05T07:46:12.389Z,4.63
2023-05-05T07:48:41.556Z,4.03
2023-05-05T07:51:09.250Z,4.40
2023-05-05T07:53:36.390Z,5.00
2023-05-05T07:56:03.457Z,4.40
2023-05-05T07:58:30.156Z,4.18
2023-05-05T08:00:56.908Z,3.70
2023-05-05T08:03:24.900Z,4.40
2023-05-05T08:05:56.416Z,5.43
2023-05-05T08:08:24.755Z,4.55
2023-05-05T08:10:52.942Z,4.55
2023-05-05T08:13:19.759Z,4.93
2023-05-05T08:15:46.529Z,5.15
2023-05-05T08:18:13.994Z,4.63
2023-05-05T08:20:40.691Z,7.18
2023-05-05T08:23:07.405Z,6.07
2023-05-05T08:25:34.102Z,6.00
2023-05-05T08:28:00.826Z,5.35
2023-05-05T08:30:27.774Z,5.95
2023-05-05T08:32:55.108Z,6.00
2023-05-05T08:35:22.546Z,6.78
2023-05-05T08:37:50.659Z,5.55
2023-05-05T08:40:29.034Z,5.57
2023-05-05T08:42:56.237Z,6.15
2023-05-05T08:45:22.898Z,6.85
2023-05-05T08:47:49.632Z,6.30
2023-05-05T08:50:19.043Z,5.28
2023-05-05T08:52:53.657Z,5.45
2023-05-05T08:55:26.249Z,5.45
2023-05-05T08:57:57.089Z,5.63
2023-05-05T09:00:24.682Z,5.00
2023-05-05T09:02:52.036Z,5.40
2023-05-05T09:05:18.786Z,4.70
2023-05-05T09:07:47.119Z,5.15
2023-05-05T09:10:14.374Z,4.38
2023-05-05T09:12:41.967Z,5.65
2023-05-05T09:15:10.494Z,5.20
2023-05-05T09:17:38.375Z,4.97
2023-05-05T09:20:09.818Z,5.00
2023-05-05T09:22:41.543Z,5.35
2023-05-05T09:27:48.908Z,5.17
2023-05-05T09:30:26.971Z,5.53
2023-05-05T09:32:55.337Z,5.00
2023-05-05T09:35:23.143Z,5.25
2023-05-05T09:37:49.818Z,4.30
2023-05-05T09:40:18.505Z,4.55
2023-05-05T09:42:45.610Z,4.88
2023-05-05T09:45:18.522Z,4.70
2023-05-05T09:47:49.132Z,5.47
2023-05-05T09:50:18.865Z,5.40
2023-05-05T09:53:02.645Z,5.05
2023-05-05T09:55:32.919Z,5.45
2023-05-05T09:58:27.363Z,5.35
2023-05-05T10:00:56.035Z,5.35
2023-05-05T10:03:23.537Z,5.72
2023-05-05T10:05:52.171Z,5.70
2023-05-05T10:08:21.063Z,5.45
2023-05-05T10:10:52.421Z,4.85
2023-05-05T10:13:21.318Z,5.57
2023-05-05T10:15:51.047Z,5.43
2023-05-05T10:18:23.958Z,5.57
2023-05-05T10:21:00.044Z,5.55
2023-05-05T10:23:42.935Z,5.75
2023-05-05T10:28:50.887Z,5.47
2023-05-05T10:31:38.782Z,5.30
2023-05-05T10:34:10.860Z,6.05
2023-05-05T10:36:39.395Z,5.50
2023-05-05T10:39:09.237Z,6.38
2023-05-05T10:41:36.947Z,6.28
2023-05-05T10:44:04.679Z,5.88
2023-05-05T10:46:32.249Z,6.13
2023-05-05T10:49:11.658Z,6.22
2023-05-05T10:51:59.965Z,6.35
2023-05-05T10:54:38.336Z,6.68
2023-05-05T10:57:09.587Z,5.78
2023-05-05T10:59:36.797Z,6.43
2023-05-05T11:02:29.774Z,6.45
2023-05-05T11:05:10.153Z,7.50
2023-05-05T11:07:37.794Z,6.20
2023-05-05T11:10:11.898Z,6.72
2023-05-05T11:13:02.791Z,6.57
2023-05-05T11:15:30.502Z,6.60
2023-05-05T11:17:59.519Z,7.28
2023-05-05T11:20:52.631Z,8.10
2023-05-05T11:23:19.372Z,7.00
2023-05-05T11:25:47.092Z,8.48
2023-05-05T11:28:19.051Z,7.78
2023-05-05T11:30:54.780Z,7.47
2023-05-05T11:33:32.515Z,8.18
2023-05-05T11:36:08.807Z,8.00
2023-05-05T11:39:02.852Z,8.27
2023-05-05T11:41:32.581Z,7.47
2023-05-05T11:44:12.166Z,7.95
2023-05-05T11:47:04.915Z,8.10
2023-05-05T11:49:32.750Z,8.00
2023-05-05T11:52:02.189Z,8.02
2023-05-05T11:54:29.621Z,8.57
2023-05-05T11:57:10.166Z,7.53
2023-05-05T11:59:49.795Z,7.43
2023-05-05T12:02:18.089Z,7.50
2023-05-05T12:04:45.116Z,7.40
2023-05-05T12:07:16.794Z,8.43
2023-05-05T12:09:45.811Z,7.45
2023-05-05T12:12:13.373Z,8.40
2023-05-05T12:14:54.271Z,7.93
2023-05-05T12:17:22.772Z,8.85
2023-05-05T12:19:54.934Z,8.23
2023-05-05T12:22:26.152Z,7.38
2023-05-05T12:25:01.241Z,6.78
2023-05-05T12:27:28.961Z,8.02
2023-05-05T12:29:57.349Z,8.82
2023-05-05T12:32:28.107Z,8.48
2023-05-05T12:34:57.512Z,8.43
2023-05-05T12:37:25.851Z,8.02
2023-05-05T12:39:54.876Z,8.57
2023-05-05T12:42:22.592Z,7.63
2023-05-05T12:44:49.714Z,7.30
2023-05-05T12:47:33.080Z,8.45
2023-05-05T12:50:00.643Z,8.15
2023-05-05T12:52:48.041Z,7.70
2023-05-05T12:55:14.683Z,8.23
2023-05-05T12:58:02.283Z,7.25
2023-05-05T13:00:29.149Z,8.23
2023-05-05T13:02:56.712Z,6.45
2023-05-05T13:05:36.205Z,6.03
2023-05-05T13:08:02.880Z,7.75
2023-05-05T13:10:31.097Z,7.30
2023-05-05T13:12:58.443Z,7.10
2023-05-05T13:15:25.998Z,6.80
2023-05-05T13:18:00.043Z,7.40
2023-05-05T13:20:28.071Z,6.72
2023-05-05T13:22:54.786Z,7.70
2023-05-05T13:25:21.483Z,7.63
2023-05-05T13:27:48.151Z,6.68
2023-05-05T13:30:15.339Z,7.40
2023-05-05T13:32:42.189Z,7.38
2023-05-05T13:35:09.327Z,8.05
2023-05-05T13:37:36.274Z,7.10
2023-05-05T13:40:03.136Z,7.18
2023-05-05T13:42:29.775Z,6.75
2023-05-05T13:44:56.483Z,6.22
2023-05-05T13:47:23.227Z,6.55
2023-05-05T13:49:50.060Z,6.97
2023-05-05T13:52:16.719Z,6.72
2023-05-05T13:54:43.394Z,6.93
2023-05-05T13:57:11.116Z,6.82
2023-05-05T13:59:37.879Z,5.90
2023-05-05T14:02:04.598Z,6.93
2023-05-05T14:04:31.419Z,6.95
2023-05-05T14:06:58.463Z,6.38
2023-05-05T14:09:25.248Z,6.93
2023-05-05T14:11:51.971Z,7.07
2023-05-05T14:14:19.579Z,6.78
2023-05-05T14:16:48.511Z,7.13
2023-05-05T14:19:16.637Z,7.03
2023-05-05T14:21:43.261Z,6.80
2023-05-05T14:24:09.971Z,6.88
2023-05-05T14:26:36.675Z,6.32
2023-05-05T14:29:03.414Z,5.88
2023-05-05T14:31:30.085Z,5.72
2023-05-05T14:33:56.745Z,6.57
2023-05-05T14:36:23.688Z,6.55
2023-05-05T14:38:50.514Z,7.63
2023-05-05T14:41:17.242Z,7.05
2023-05-05T14:43:43.898Z,6.53
2023-05-05T14:46:10.658Z,7.32
2023-05-05T14:48:37.594Z,7.30
2023-05-05T14:51:04.705Z,7.72
2023-05-05T14:53:31.461Z,7.57
2023-05-05T14:55:58.109Z,7.53
2023-05-05T14:58:24.859Z,8.07
2023-05-05T15:00:54.764Z,8.48
2023-05-05T15:03:21.509Z,9.38
2023-05-05T15:05:48.571Z,9.00
2023-05-05T15:08:15.378Z,9.02
2023-05-05T15:10:42.115Z,10.35
2023-05-05T15:13:09.075Z,7.35
2023-05-05T15:15:35.816Z,4.07
2023-05-05T15:18:02.713Z,2.47
2023-05-05T15:20:29.612Z,2.92
2023-05-05T15:22:56.742Z,3.00
2023-05-05T15:25:23.809Z,3.33
2023-05-05T15:27:50.505Z,2.65
2023-05-05T15:30:17.269Z,2.58
2023-05-05T15:32:44.096Z,3.17
2023-05-05T15:35:11.057Z,2.60
2023-05-05T15:37:37.906Z,1.90
2023-05-05T15:40:08.068Z,2.40
2023-05-05T15:42:36.760Z,2.03
2023-05-05T15:45:04.386Z,2.28
2023-05-05T15:47:31.236Z,2.35
2023-05-05T15:49:57.914Z,2.70
2023-05-05T15:52:24.619Z,2.80
2023-05-05T15:54:51.279Z,2.63
2023-05-05T15:57:17.986Z,3.53
2023-05-05T15:59:44.971Z,3.17
2023-05-05T16:02:11.815Z,3.22
2023-05-05T16:04:38.466Z,3.50
2023-05-05T16:07:05.730Z,2.75
2023-05-05T16:09:32.466Z,2.80
2023-05-05T16:11:59.272Z,2.78
2023-05-05T16:14:27.704Z,2.65
2023-05-05T16:16:55.470Z,2.78
2023-05-05T16:19:23.360Z,3.20
2023-05-05T16:21:50.035Z,3.75
2023-05-05T16:24:17.074Z,3.75
2023-05-05T16:26:44.180Z,3.38
2023-05-05T16:29:11.813Z,3.50
2023-05-05T16:31:38.871Z,2.35
2023-05-05T16:34:05.772Z,1.58
2023-05-05T16:36:32.625Z,1.38
2023-05-05T16:38:59.459Z,1.58
2023-05-05T16:41:26.828Z,1.48
2023-05-05T16:43:53.713Z,1.52
2023-05-05T16:46:20.416Z,1.85
2023-05-05T16:48:47.234Z,1.23
2023-05-05T16:51:14.065Z,1.40
2023-05-05T16:53:40.737Z,1.33
2023-05-05T16:56:07.847Z,1.30
2023-05-05T16:58:34.648Z,1.10
2023-05-05T17:01:03.634Z,1.38
2023-05-05T17:03:30.530Z,1.40
2023-05-05T17:05:57.351Z,1.27
2023-05-05T17:08:24.101Z,1.40
2023-05-05T17:10:50.805Z,1.60
2023-05-05T17:13:17.569Z,1.52
2023-05-05T17:15:44.466Z,1.40
2023-05-05T17:18:11.272Z,1.30
2023-05-05T17:20:38.006Z,1.92
2023-05-05T17:23:05.107Z,1.58
2023-05-05T17:25:32.093Z,1.58
2023-05-05T17:27:58.799Z,1.30
2023-05-05T17:30:25.680Z,1.10
2023-05-05T17:32:52.556Z,1.73
2023-05-05T17:35:19.476Z,1.40
2023-05-05T17:37:46.235Z,1.42
2023-05-05T17:40:13.967Z,1.20
2023-05-05T17:42:40.786Z,3.33
2023-05-05T17:45:08.539Z,1.77
2023-05-05T17:47:35.979Z,1.23
2023-05-05T17:50:03.084Z,1.60
2023-05-05T17:52:29.914Z,1.95
2023-05-05T17:54:56.905Z,2.20
2023-05-05T17:57:23.629Z,2.10
2023-05-05T17:59:51.907Z,2.05
2023-05-05T18:02:19.095Z,1.90
2023-05-05T18:04:46.398Z,1.55
2023-05-05T18:07:14.560Z,1.50
2023-05-05T18:09:41.660Z,1.40
2023-05-05T18:12:08.340Z,1.20
2023-05-05T18:14:35.071Z,1.88
2023-05-05T18:17:02.253Z,1.50
2023-05-05T18:19:28.943Z,1.63
2023-05-05T18:21:55.702Z,1.58
2023-05-05T18:24:22.950Z,5.40
2023-05-05T18:26:51.756Z,6.35
2023-05-05T18:29:19.565Z,4.28
2023-05-05T18:31:49.166Z,3.05
2023-05-05T18:34:16.783Z,2.20
2023-05-05T18:36:43.715Z,1.70
2023-05-05T18:39:10.387Z,2.00
2023-05-05T18:41:37.212Z,1.80
2023-05-05T18:44:03.923Z,2.05
2023-05-05T18:46:30.791Z,1.75
2023-05-05T18:48:57.535Z,1.83
2023-05-05T18:51:24.204Z,1.52
2023-05-05T18:53:50.887Z,2.15
2023-05-05T18:56:17.545Z,2.15
2023-05-05T18:58:44.270Z,2.00
2023-05-05T19:01:10.993Z,1.88
2023-05-05T19:03:37.712Z,2.33
2023-05-05T19:06:07.520Z,2.22
2023-05-05T19:08:34.321Z,2.22
2023-05-05T19:11:01.062Z,2.80
2023-05-05T19:13:27.702Z,2.72
2023-05-05T19:15:57.006Z,2.78
2023-05-05T19:18:24.332Z,2.47
2023-05-05T19:20:50.968Z,3.42
2023-05-05T19:23:17.659Z,3.63
2023-05-05T19:25:45.431Z,3.58
2023-05-05T19:28:12.166Z,3.25
2023-05-05T19:30:38.920Z,2.78
2023-05-05T19:33:05.776Z,3.15
2023-05-05T19:35:32.608Z,2.72
2023-05-05T19:37:59.387Z,2.72
2023-05-05T19:40:26.074Z,2.80
2023-05-05T19:42:52.805Z,5.45
2023-05-05T19:45:19.552Z,6.20
2023-05-05T19:47:46.296Z,4.45
2023-05-05T19:50:15.255Z,5.35
2023-05-05T19:52:42.235Z,3.33
2023-05-05T19:55:10.541Z,4.25
2023-05-05T19:57:37.420Z,6.38
2023-05-05T20:00:04.677Z,5.18
2023-05-05T20:02:31.684Z,4.60
2023-05-05T20:04:58.501Z,5.03
2023-05-05T20:07:25.886Z,5.18
2023-05-05T20:09:52.560Z,5.00
2023-05-05T20:12:21.397Z,5.25
2023-05-05T20:14:48.056Z,5.00
2023-05-05T20:17:17.356Z,7.22
2023-05-05T20:19:44.020Z,10.27
2023-05-05T20:22:10.701Z,7.50
2023-05-05T20:24:37.465Z,6.13
2023-05-05T20:27:05.628Z,4.90
2023-05-05T20:29:32.297Z,4.97
2023-05-05T20:31:58.964Z,5.00
2023-05-05T20:34:27.103Z,5.28
2023-05-05T20:36:54.494Z,5.93
2023-05-05T20:39:21.227Z,5.13
2023-05-05T20:41:48.303Z,5.15
2023-05-05T20:44:14.971Z,6.15
2023-05-05T20:46:41.709Z,5.60
2023-05-05T20:49:08.480Z,5.80
2023-05-05T20:51:35.267Z,5.28
2023-05-05T20:54:02.993Z,6.32
2023-05-05T20:56:29.641Z,6.45
2023-05-05T20:58:56.749Z,6.20
2023-05-05T21:01:23.499Z,6.05
2023-05-05T21:03:50.461Z,6.35
2023-05-05T21:06:19.389Z,6.45
2023-05-05T21:08:47.237Z,6.38
2023-05-05T21:11:13.935Z,6.53
2023-05-05T21:13:40.629Z,6.20
2023-05-05T21:16:07.427Z,6.05
2023-05-05T21:18:34.076Z,7.38
2023-05-05T21:21:02.153Z,7.43
2023-05-05T21:23:30.190Z,7.43
2023-05-05T21:25:56.920Z,8.00
2023-05-05T21:28:23.601Z,8.38
2023-05-05T21:33:22.686Z,8.60
2023-05-05T21:35:49.374Z,9.02
2023-05-05T21:38:16.640Z,8.45
2023-05-05T21:40:43.337Z,9.18
2023-05-05T21:43:09.998Z,8.73
2023-05-05T21:45:36.665Z,9.50
2023-05-05T21:48:03.536Z,8.98
2023-05-05T21:50:30.280Z,8.95
2023-05-05T21:52:57.040Z,7.45
2023-05-05T21:55:23.710Z,8.98
2023-05-05T21:57:50.509Z,8.70
2023-05-05T22:00:17.325Z,9.13
2023-05-05T22:02:45.328Z,8.60
2023-05-05T22:05:12.290Z,9.15
2023-05-05T22:07:39.395Z,9.73
2023-05-05T22:10:06.661Z,8.90
2023-05-05T22:12:33.397Z,9.25
2023-05-05T22:15:00.249Z,9.95
2023-05-05T22:17:27.709Z,9.43
2023-05-05T22:19:54.375Z,11.25
2023-05-05T22:22:21.150Z,10.93
2023-05-05T22:24:47.847Z,9.93
2023-05-05T22:27:14.515Z,10.70
2023-05-05T22:29:41.273Z,9.88
2023-05-05T22:32:07.923Z,10.82
2023-05-05T22:34:37.808Z,11.07
2023-05-05T22:37:04.475Z,10.30
2023-05-05T22:39:31.244Z,10.82
2023-05-05T22:41:58.036Z,10.23
2023-05-05T22:44:24.700Z,10.02
2023-05-05T22:46:52.490Z,10.82
2023-05-05T22:49:19.281Z,10.60
2023-05-05T22:51:46.930Z,10.35
2023-05-05T22:54:13.594Z,10.38
2023-05-05T22:56:40.394Z,11.77
2023-05-05T22:59:07.156Z,11.70
2023-05-05T23:01:39.438Z,12.68
2023-05-05T23:04:06.483Z,11.32
2023-05-05T23:06:33.883Z,12.25
2023-05-05T23:09:00.907Z,11.60
2023-05-05T23:11:27.580Z,12.25
2023-05-05T23:13:54.262Z,11.27
2023-05-05T23:16:21.535Z,12.35
2023-05-05T23:18:48.221Z,10.82
2023-05-05T23:21:14.897Z,12.18
2023-05-05T23:23:41.607Z,11.23
2023-05-05T23:26:08.266Z,12.48
2023-05-05T23:28:35.328Z,12.18
2023-05-05T23:31:02.597Z,11.70
2023-05-05T23:33:29.278Z,12.10
2023-05-05T23:35:55.988Z,11.95
2023-05-05T23:38:22.725Z,11.27
2023-05-05T23:40:49.399Z,11.55
2023-05-05T23:43:16.194Z,11.90
2023-05-05T23:45:42.859Z,12.93
2023-05-05T23:48:10.393Z,12.73
2023-05-05T23:50:37.075Z,11.40
2023-05-05T23:53:03.702Z,11.65
2023-05-05T23:55:30.391Z,10.85
2023-05-05T23:57:57.143Z,12.13
